createdAt,value
2023-04-30T00:02:22.226Z,91.31
2023-04-30T00:04:49.059Z,91.41
2023-04-30T00:07:15.946Z,92.58
2023-04-30T00:09:42.921Z,95.46
2023-04-30T00:12:09.747Z,95.81
2023-04-30T00:14:36.767Z,96.53
2023-04-30T00:17:03.646Z,98.09
2023-04-30T00:19:30.868Z,100.00
2023-04-30T00:21:57.714Z,100.00
2023-04-30T00:24:24.612Z,100.00
2023-04-30T00:26:51.542Z,100.00
2023-04-30T00:29:18.497Z,100.00
2023-04-30T00:31:45.423Z,100.00
2023-04-30T00:34:12.574Z,100.00
2023-04-30T00:36:40.643Z,100.00
2023-04-30T00:39:07.689Z,100.00
2023-04-30T00:41:35.478Z,100.00
2023-04-30T00:44:03.073Z,100.00
2023-04-30T00:46:31.120Z,100.00
2023-04-30T00:48:58.289Z,100.00
2023-04-30T00:51:25.526Z,100.00
2023-04-30T00:53:52.351Z,100.00
2023-04-30T00:56:19.424Z,100.00
2023-04-30T00:58:46.432Z,100.00
2023-04-30T01:01:13.623Z,100.00
2023-04-30T01:03:40.717Z,100.00
2023-04-30T01:06:07.706Z,100.00
2023-04-30T01:08:34.671Z,100.00
2023-04-30T01:11:06.263Z,100.00
2023-04-30T01:13:39.718Z,100.00
2023-04-30T01:16:27.488Z,100.00
2023-04-30T01:19:43.197Z,100.00
2023-04-30T01:22:15.030Z,100.00
2023-04-30T01:25:07.651Z,100.00
2023-04-30T01:28:12.481Z,100.00
2023-04-30T01:30:41.069Z,100.00
2023-04-30T01:33:08.225Z,100.00
2023-04-30T01:35:54.598Z,100.00
2023-04-30T01:38:21.912Z,100.00
2023-04-30T01:40:52.916Z,100.00
2023-04-30T01:43:42.051Z,100.00
2023-04-30T01:46:25.770Z,100.00
2023-04-30T01:48:58.692Z,100.00
2023-04-30T01:51:34.575Z,100.00
2023-04-30T01:54:09.213Z,100.00
2023-04-30T01:56:45.370Z,100.00
2023-04-30T01:59:12.344Z,100.00
2023-04-30T02:01:39.416Z,100.00
2023-04-30T02:04:06.387Z,100.00
2023-04-30T02:06:33.498Z,100.00
2023-04-30T02:09:05.528Z,100.00
2023-04-30T02:11:32.860Z,100.00
2023-04-30T02:13:59.845Z,100.00
2023-04-30T02:16:26.951Z,100.00
2023-04-30T02:18:54.028Z,100.00
2023-04-30T02:21:21.296Z,100.00
2023-04-30T02:23:48.315Z,100.00
2023-04-30T02:26:15.593Z,100.00
2023-04-30T02:28:42.557Z,100.00
2023-04-30T02:31:10.255Z,100.00
2023-04-30T02:33:37.515Z,100.00
2023-04-30T02:36:04.729Z,100.00
2023-04-30T02:38:31.747Z,100.00
2023-04-30T02:40:58.620Z,100.00
2023-04-30T02:43:25.579Z,100.00
2023-04-30T02:45:52.520Z,100.00
2023-04-30T02:48:19.411Z,100.00
2023-04-30T02:50:46.333Z,100.00
2023-04-30T02:53:13.249Z,100.00
2023-04-30T02:55:40.326Z,100.00
2023-04-30T02:58:07.245Z,100.00
2023-04-30T03:00:34.666Z,100.00
2023-04-30T03:03:01.641Z,100.00
2023-04-30T03:05:28.674Z,100.00
2023-04-30T03:07:56.187Z,100.00
2023-04-30T03:10:23.160Z,100.00
2023-04-30T03:12:50.104Z,100.00
2023-04-30T03:15:18.199Z,100.00
2023-04-30T03:17:46.357Z,100.00
2023-04-30T03:20:14.502Z,100.00
2023-04-30T03:22:41.930Z,100.00
2023-04-30T03:25:10.207Z,100.00
2023-04-30T03:27:37.156Z,100.00
2023-04-30T03:30:04.803Z,100.00
2023-04-30T03:32:31.726Z,100.00
2023-04-30T03:34:58.801Z,100.00
2023-04-30T03:37:26.876Z,100.00
2023-04-30T03:39:53.958Z,100.00
2023-04-30T03:42:21.370Z,100.00
2023-04-30T03:44:48.276Z,100.00
2023-04-30T03:47:15.261Z,100.00
2023-04-30T03:49:42.133Z,100.00
2023-04-30T03:52:09.059Z,100.00
2023-04-30T03:54:36.048Z,100.00
2023-04-30T03:57:04.678Z,100.00
2023-04-30T03:59:32.208Z,100.00
2023-04-30T04:02:01.412Z,100.00
2023-04-30T04:04:29.279Z,100.00
2023-04-30T04:06:56.357Z,100.00
2023-04-30T04:09:23.233Z,100.00
2023-04-30T04:11:50.250Z,100.00
2023-04-30T04:14:17.184Z,100.00
2023-04-30T04:16:44.893Z,100.00
2023-04-30T04:19:13.366Z,100.00
2023-04-30T04:21:40.284Z,100.00
2023-04-30T04:24:12.607Z,100.00
2023-04-30T04:26:39.556Z,100.00
2023-04-30T04:29:09.704Z,100.00
2023-04-30T04:31:37.093Z,100.00
2023-04-30T04:34:04.805Z,100.00
2023-04-30T04:36:31.972Z,100.00
2023-04-30T04:39:02.289Z,100.00
2023-04-30T04:41:33.087Z,100.00
2023-04-30T04:44:01.925Z,100.00
2023-04-30T04:46:31.871Z,100.00
2023-04-30T04:48:58.945Z,100.00
2023-04-30T04:51:25.916Z,100.00
2023-04-30T04:53:53.084Z,100.00
2023-04-30T04:56:20.124Z,100.00
2023-04-30T04:58:47.566Z,100.00
2023-04-30T05:01:15.820Z,100.00
2023-04-30T05:03:45.292Z,100.00
2023-04-30T05:06:12.316Z,100.00
2023-04-30T05:08:39.220Z,100.00
2023-04-30T05:11:06.911Z,100.00
2023-04-30T05:13:33.770Z,100.00
2023-04-30T05:16:00.726Z,100.00
2023-04-30T05:18:27.652Z,100.00
2023-04-30T05:20:54.562Z,100.00
2023-04-30T05:23:21.633Z,100.00
2023-04-30T05:25:55.452Z,100.00
2023-04-30T05:28:22.560Z,100.00
2023-04-30T05:30:49.363Z,100.00
2023-04-30T05:33:16.200Z,100.00
2023-04-30T05:35:43.126Z,100.00
2023-04-30T05:38:09.962Z,100.00
2023-04-30T05:40:36.947Z,99.63
2023-04-30T05:43:03.879Z,98.04
2023-04-30T05:45:30.974Z,96.49
2023-04-30T05:47:57.994Z,93.54
2023-04-30T05:50:24.877Z,91.46
2023-04-30T05:52:51.879Z,90.51
2023-04-30T05:55:18.714Z,88.96
2023-04-30T05:57:45.604Z,88.33
2023-04-30T06:00:13.647Z,86.72
2023-04-30T06:02:41.424Z,86.33
2023-04-30T06:05:09.128Z,84.29
2023-04-30T06:07:36.285Z,83.47
2023-04-30T06:10:03.360Z,82.61
2023-04-30T06:12:30.306Z,81.37
2023-04-30T06:14:57.628Z,80.25
2023-04-30T06:17:24.495Z,79.82
2023-04-30T06:19:51.502Z,78.13
2023-04-30T06:22:18.357Z,78.11
2023-04-30T06:24:45.669Z,76.88
2023-04-30T06:27:12.571Z,76.08
2023-04-30T06:29:39.462Z,75.01
2023-04-30T06:32:10.040Z,74.34
2023-04-30T06:34:37.297Z,73.53
2023-04-30T06:37:04.151Z,72.56
2023-04-30T06:39:31.126Z,71.75
2023-04-30T06:41:57.989Z,70.09
2023-04-30T06:44:24.799Z,68.78
2023-04-30T06:46:52.407Z,68.54
2023-04-30T06:49:19.336Z,66.34
2023-04-30T06:51:46.153Z,66.46
2023-04-30T06:54:14.443Z,66.78
2023-04-30T06:56:41.468Z,66.93
2023-04-30T06:59:08.949Z,66.06
2023-04-30T07:01:35.951Z,65.50
2023-04-30T07:04:02.890Z,64.17
2023-04-30T07:06:30.806Z,63.59
2023-04-30T07:08:57.766Z,63.23
2023-04-30T07:11:28.570Z,62.84
2023-04-30T07:13:57.004Z,62.16
2023-04-30T07:16:25.544Z,62.00
2023-04-30T07:18:53.630Z,60.64
2023-04-30T07:21:20.515Z,60.14
2023-04-30T07:23:48.841Z,59.28
2023-04-30T07:26:15.961Z,58.85
2023-04-30T07:28:42.825Z,59.33
2023-04-30T07:31:10.196Z,58.90
2023-04-30T07:33:37.081Z,59.31
2023-04-30T07:36:04.167Z,58.86
2023-04-30T07:38:30.983Z,57.38
2023-04-30T07:40:57.816Z,56.97
2023-04-30T07:43:24.975Z,56.42
2023-04-30T07:45:53.590Z,55.87
2023-04-30T07:48:21.198Z,56.03
2023-04-30T07:50:50.578Z,55.58
2023-04-30T07:53:18.214Z,54.98
2023-04-30T07:55:45.245Z,55.36
2023-04-30T07:58:12.154Z,55.79
2023-04-30T08:00:39.029Z,55.22
2023-04-30T08:03:05.927Z,55.10
2023-04-30T08:05:32.903Z,54.47
2023-04-30T08:07:59.910Z,54.33
2023-04-30T08:10:26.880Z,53.19
2023-04-30T08:12:53.727Z,52.41
2023-04-30T08:15:23.748Z,52.91
2023-04-30T08:17:51.495Z,53.45
2023-04-30T08:20:18.851Z,53.92
2023-04-30T08:22:46.822Z,53.31
2023-04-30T08:25:13.836Z,53.48
2023-04-30T08:27:40.720Z,52.94
2023-04-30T08:30:07.929Z,52.84
2023-04-30T08:32:36.299Z,52.49
2023-04-30T08:35:04.640Z,52.42
2023-04-30T08:37:31.555Z,52.67
2023-04-30T08:39:58.651Z,52.98
2023-04-30T08:42:26.293Z,52.56
2023-04-30T08:44:53.120Z,52.73
2023-04-30T08:47:20.098Z,52.18
2023-04-30T08:49:47.360Z,51.92
2023-04-30T08:52:14.482Z,52.20
2023-04-30T08:54:41.354Z,51.75
2023-04-30T08:57:08.200Z,51.99
2023-04-30T08:59:35.137Z,51.88
2023-04-30T09:02:02.443Z,51.17
2023-04-30T09:04:29.584Z,50.53
2023-04-30T09:06:59.282Z,50.18
2023-04-30T09:09:30.807Z,49.85
2023-04-30T09:12:20.433Z,49.60
2023-04-30T09:15:02.408Z,49.99
2023-04-30T09:17:29.858Z,49.86
2023-04-30T09:20:07.597Z,50.35
2023-04-30T09:22:35.603Z,50.46
2023-04-30T09:25:02.475Z,50.61
2023-04-30T09:27:29.328Z,49.85
2023-04-30T09:29:56.774Z,49.67
2023-04-30T09:32:24.153Z,49.64
2023-04-30T09:34:51.373Z,49.81
2023-04-30T09:37:18.194Z,49.13
2023-04-30T09:39:53.433Z,48.62
2023-04-30T09:42:20.526Z,47.65
2023-04-30T09:44:47.668Z,48.24
2023-04-30T09:47:16.240Z,47.50
2023-04-30T09:49:47.536Z,46.10
2023-04-30T09:52:15.486Z,45.84
2023-04-30T09:54:42.444Z,45.03
2023-04-30T09:57:36.377Z,44.95
2023-04-30T10:00:03.309Z,45.70
2023-04-30T10:02:36.168Z,45.58
2023-04-30T10:05:03.371Z,44.26
2023-04-30T10:07:36.059Z,43.78
2023-04-30T10:10:09.504Z,42.82
2023-04-30T10:12:43.529Z,43.06
2023-04-30T10:15:14.742Z,43.13
2023-04-30T10:17:41.901Z,42.52
2023-04-30T10:20:12.051Z,42.94
2023-04-30T10:22:38.904Z,42.88
2023-04-30T10:25:07.248Z,42.28
2023-04-30T10:27:34.569Z,42.81
2023-04-30T10:30:01.507Z,43.14
2023-04-30T10:32:32.918Z,43.44
2023-04-30T10:35:21.965Z,43.81
2023-04-30T10:38:06.840Z,44.20
2023-04-30T10:40:39.706Z,44.95
2023-04-30T10:43:06.574Z,45.24
2023-04-30T10:45:37.931Z,45.36
2023-04-30T10:48:06.540Z,45.94
2023-04-30T10:50:33.511Z,46.09
2023-04-30T10:53:04.482Z,46.47
2023-04-30T10:55:31.586Z,46.50
2023-04-30T10:57:58.774Z,46.46
2023-04-30T11:00:27.382Z,46.99
2023-04-30T11:03:01.906Z,47.22
2023-04-30T11:05:38.990Z,46.89
2023-04-30T11:08:06.451Z,46.44
2023-04-30T11:10:34.937Z,46.69
2023-04-30T11:13:06.322Z,46.93
2023-04-30T11:15:45.076Z,46.48
2023-04-30T11:18:12.222Z,46.26
2023-04-30T11:20:55.093Z,46.53
2023-04-30T11:23:38.519Z,46.67
2023-04-30T11:26:08.595Z,46.59
2023-04-30T11:28:37.751Z,47.18
2023-04-30T11:31:05.187Z,46.88
2023-04-30T11:33:32.394Z,46.43
2023-04-30T11:36:00.023Z,46.07
2023-04-30T11:38:31.919Z,46.39
2023-04-30T11:40:59.207Z,46.40
2023-04-30T11:43:33.252Z,45.87
2023-04-30T11:46:10.933Z,45.41
2023-04-30T11:48:39.154Z,45.67
2023-04-30T11:51:26.930Z,45.44
2023-04-30T11:53:53.865Z,45.57
2023-04-30T11:56:22.220Z,45.80
2023-04-30T11:58:49.784Z,45.68
2023-04-30T12:01:16.729Z,45.21
2023-04-30T12:03:50.885Z,44.50
2023-04-30T12:06:28.419Z,44.53
2023-04-30T12:08:59.485Z,45.02
2023-04-30T12:11:31.053Z,43.98
2023-04-30T12:14:07.528Z,43.42
2023-04-30T12:16:40.730Z,43.01
2023-04-30T12:19:11.503Z,43.21
2023-04-30T12:21:38.858Z,43.34
2023-04-30T12:24:07.268Z,43.76
2023-04-30T12:26:40.840Z,42.81
2023-04-30T12:29:18.504Z,41.32
2023-04-30T12:31:45.900Z,41.86
2023-04-30T12:34:13.688Z,42.06
2023-04-30T12:36:43.985Z,42.31
2023-04-30T12:39:17.412Z,42.26
2023-04-30T12:41:48.783Z,42.17
2023-04-30T12:44:20.942Z,41.98
2023-04-30T12:46:49.155Z,42.42
2023-04-30T12:49:29.508Z,42.41
2023-04-30T12:52:01.397Z,43.43
2023-04-30T12:54:32.843Z,44.35
2023-04-30T12:57:10.042Z,44.72
2023-04-30T12:59:49.624Z,44.61
2023-04-30T13:02:16.551Z,44.61
2023-04-30T13:04:43.959Z,44.92
2023-04-30T13:07:11.047Z,44.68
2023-04-30T13:09:40.931Z,45.20
2023-04-30T13:12:07.796Z,45.42
2023-04-30T13:14:35.247Z,46.08
2023-04-30T13:17:07.190Z,46.35
2023-04-30T13:19:35.393Z,46.77
2023-04-30T13:22:02.417Z,46.39
2023-04-30T13:24:31.307Z,46.53
2023-04-30T13:26:59.431Z,46.92
2023-04-30T13:29:26.449Z,46.81
2023-04-30T13:31:53.443Z,46.94
2023-04-30T13:34:20.447Z,46.55
2023-04-30T13:36:47.417Z,46.42
2023-04-30T13:39:17.611Z,46.91
2023-04-30T13:41:45.186Z,46.77
2023-04-30T13:44:12.720Z,47.38
2023-04-30T13:46:39.759Z,46.92
2023-04-30T13:49:06.631Z,46.58
2023-04-30T13:51:33.643Z,46.39
2023-04-30T13:54:00.504Z,46.80
2023-04-30T13:56:27.395Z,47.00
2023-04-30T13:58:54.284Z,47.18
2023-04-30T14:01:21.198Z,47.55
2023-04-30T14:03:48.315Z,47.83
2023-04-30T14:06:15.559Z,47.77
2023-04-30T14:08:42.467Z,48.03
2023-04-30T14:11:12.598Z,48.10
2023-04-30T14:13:39.505Z,48.18
2023-04-30T14:16:06.681Z,48.03
2023-04-30T14:18:33.851Z,47.28
2023-04-30T14:24:23.957Z,45.94
2023-04-30T14:26:50.925Z,46.07
2023-04-30T14:29:21.574Z,46.07
2023-04-30T14:31:49.423Z,46.79
2023-04-30T14:34:16.448Z,46.59
2023-04-30T14:36:43.306Z,46.41
2023-04-30T14:39:10.241Z,47.61
2023-04-30T14:41:37.783Z,47.11
2023-04-30T14:44:05.863Z,46.35
2023-04-30T14:46:33.743Z,45.70
2023-04-30T14:49:00.808Z,44.77
2023-04-30T14:51:28.930Z,44.72
2023-04-30T14:53:55.831Z,44.77
2023-04-30T14:56:23.948Z,45.16
2023-04-30T14:58:51.161Z,45.51
2023-04-30T15:01:18.051Z,45.47
2023-04-30T15:03:45.133Z,45.52
2023-04-30T15:06:13.165Z,45.61
2023-04-30T15:08:40.945Z,44.97
2023-04-30T15:11:09.978Z,45.29
2023-04-30T15:13:40.345Z,44.81
2023-04-30T15:16:07.352Z,44.68
2023-04-30T15:18:34.416Z,44.67
2023-04-30T15:21:02.225Z,44.71
2023-04-30T15:23:30.156Z,44.27
2023-04-30T15:25:57.105Z,44.61
2023-04-30T15:28:24.704Z,45.09
2023-04-30T15:30:52.529Z,44.92
2023-04-30T15:33:20.102Z,45.54
2023-04-30T15:35:47.717Z,45.74
2023-04-30T15:38:14.632Z,45.88
2023-04-30T15:40:41.561Z,46.29
2023-04-30T15:43:08.446Z,46.44
2023-04-30T15:45:35.335Z,46.76
2023-04-30T15:48:02.529Z,46.78
2023-04-30T15:50:29.997Z,46.83
2023-04-30T15:52:57.268Z,46.99
2023-04-30T15:55:24.233Z,48.44
2023-04-30T15:57:51.597Z,47.55
2023-04-30T16:00:18.694Z,46.77
2023-04-30T16:02:45.680Z,46.82
2023-04-30T16:05:12.563Z,47.25
2023-04-30T16:07:44.486Z,47.45
2023-04-30T16:10:17.902Z,48.11
2023-04-30T16:12:44.796Z,47.98
2023-04-30T16:15:11.856Z,48.10
2023-04-30T16:17:39.204Z,48.09
2023-04-30T16:20:08.509Z,48.11
2023-04-30T16:22:35.661Z,48.54
2023-04-30T16:25:02.613Z,48.85
2023-04-30T16:27:29.747Z,48.74
2023-04-30T16:29:57.124Z,49.05
2023-04-30T16:32:24.228Z,49.29
2023-04-30T16:34:51.586Z,49.33
2023-04-30T16:37:18.491Z,48.96
2023-04-30T16:39:45.682Z,49.34
2023-04-30T16:42:12.572Z,49.59
2023-04-30T16:44:39.830Z,49.58
2023-04-30T16:47:07.026Z,49.67
2023-04-30T16:49:33.965Z,49.67
2023-04-30T16:52:02.498Z,50.15
2023-04-30T16:54:29.635Z,50.50
2023-04-30T16:56:56.494Z,50.10
2023-04-30T16:59:24.874Z,50.17
2023-04-30T17:01:51.828Z,50.49
2023-04-30T17:04:18.971Z,51.22
2023-04-30T17:06:49.297Z,51.14
2023-04-30T17:09:16.857Z,51.38
2023-04-30T17:11:43.778Z,51.90
2023-04-30T17:14:10.846Z,52.54
2023-04-30T17:16:37.938Z,52.55
2023-04-30T17:19:08.239Z,53.19
2023-04-30T17:21:38.477Z,53.08
2023-04-30T17:24:07.880Z,53.22
2023-04-30T17:26:34.812Z,53.33
2023-04-30T17:29:01.795Z,53.57
2023-04-30T17:31:30.412Z,53.80
2023-04-30T17:33:57.507Z,54.28
2023-04-30T17:36:25.058Z,54.42
2023-04-30T17:38:52.047Z,54.85
2023-04-30T17:41:19.083Z,55.02
2023-04-30T17:43:45.940Z,55.41
2023-04-30T17:46:12.968Z,55.32
2023-04-30T17:48:39.821Z,55.86
2023-04-30T17:51:06.751Z,56.21
2023-04-30T17:53:38.008Z,56.48
2023-04-30T17:56:05.890Z,57.29
2023-04-30T17:58:32.968Z,58.05
2023-04-30T18:01:01.865Z,57.77
2023-04-30T18:03:29.414Z,58.22
2023-04-30T18:05:56.488Z,58.76
2023-04-30T18:08:23.403Z,58.86
2023-04-30T18:10:50.285Z,59.15
2023-04-30T18:13:17.169Z,59.02
2023-04-30T18:15:44.240Z,59.32
2023-04-30T18:18:14.091Z,59.64
2023-04-30T18:20:44.098Z,59.82
2023-04-30T18:23:58.456Z,60.45
2023-04-30T18:26:28.386Z,61.96
2023-04-30T18:28:58.433Z,62.37
2023-04-30T18:31:25.461Z,62.58
2023-04-30T18:33:55.309Z,62.91
2023-04-30T18:36:30.731Z,63.34
2023-04-30T18:39:13.819Z,63.87
2023-04-30T18:41:43.434Z,63.93
2023-04-30T18:44:11.220Z,64.05
2023-04-30T18:46:38.095Z,64.18
2023-04-30T18:49:05.683Z,64.87
2023-04-30T18:51:33.639Z,65.30
2023-04-30T18:54:04.388Z,65.79
2023-04-30T18:56:38.997Z,66.33
2023-04-30T18:59:06.292Z,66.47
2023-04-30T19:01:33.261Z,66.80
2023-04-30T19:04:00.310Z,67.14
2023-04-30T19:06:27.339Z,67.77
2023-04-30T19:08:55.967Z,67.46
2023-04-30T19:11:22.920Z,67.90
2023-04-30T19:13:49.799Z,68.19
2023-04-30T19:16:17.146Z,68.13
2023-04-30T19:18:44.143Z,69.42
2023-04-30T19:21:13.052Z,69.39
2023-04-30T19:23:40.091Z,69.68
2023-04-30T19:26:06.956Z,69.58
2023-04-30T19:28:34.144Z,69.75
2023-04-30T19:31:01.281Z,70.21
2023-04-30T19:33:36.763Z,70.52
2023-04-30T19:36:03.900Z,70.61
2023-04-30T19:38:30.875Z,70.65
2023-04-30T19:40:57.770Z,70.62
2023-04-30T19:43:24.687Z,70.66
2023-04-30T19:45:52.318Z,71.30
2023-04-30T19:48:20.005Z,71.10
2023-04-30T19:50:51.523Z,71.45
2023-04-30T19:53:18.466Z,71.72
2023-04-30T19:55:45.562Z,72.06
2023-04-30T19:58:12.576Z,72.11
2023-04-30T20:00:45.176Z,72.39
2023-04-30T20:03:13.072Z,72.64
2023-04-30T20:05:39.968Z,72.46
2023-04-30T20:08:07.825Z,72.74
2023-04-30T20:10:36.380Z,73.83
2023-04-30T20:13:04.058Z,74.45
2023-04-30T20:15:31.043Z,77.50
2023-04-30T20:17:58.701Z,79.35
2023-04-30T20:20:25.572Z,79.22
2023-04-30T20:22:54.149Z,79.46
2023-04-30T20:25:21.988Z,79.03
2023-04-30T20:27:49.279Z,81.55
2023-04-30T20:30:16.440Z,82.24
2023-04-30T20:32:43.344Z,84.59
2023-04-30T20:35:10.295Z,88.47
2023-04-30T20:37:37.771Z,89.42
2023-04-30T20:40:08.038Z,90.07
2023-04-30T20:42:35.001Z,91.15
2023-04-30T20:45:03.925Z,92.89
2023-04-30T20:47:35.652Z,93.45
2023-04-30T20:50:03.082Z,94.19
2023-04-30T20:52:30.148Z,95.13
2023-04-30T20:54:59.391Z,94.45
2023-04-30T20:57:26.990Z,95.42
2023-04-30T20:59:53.898Z,97.59
2023-04-30T21:02:21.229Z,98.93
2023-04-30T21:04:48.231Z,99.40
2023-04-30T21:07:15.180Z,99.16
2023-04-30T21:09:42.122Z,100.00
2023-04-30T21:12:09.545Z,100.00
2023-04-30T21:14:36.463Z,100.00
2023-04-30T21:17:03.411Z,100.00
2023-04-30T21:19:34.727Z,100.00
2023-04-30T21:22:01.840Z,100.00
2023-04-30T21:24:31.089Z,100.00
2023-04-30T21:26:59.078Z,100.00
2023-04-30T21:29:26.695Z,100.00
2023-04-30T21:31:56.236Z,100.00
2023-04-30T21:34:23.129Z,100.00
2023-04-30T21:36:49.998Z,100.00
2023-04-30T21:39:17.557Z,100.00
2023-04-30T21:41:44.478Z,100.00
2023-04-30T21:44:12.497Z,100.00
2023-04-30T21:46:39.739Z,100.00
2023-04-30T21:49:07.115Z,100.00
2023-04-30T21:51:34.888Z,100.00
2023-04-30T21:54:01.909Z,100.00
2023-04-30T21:56:28.914Z,100.00
2023-04-30T21:58:55.860Z,100.00
2023-04-30T22:01:27.540Z,100.00
2023-04-30T22:03:58.080Z,100.00
2023-04-30T22:06:25.364Z,100.00
2023-04-30T22:08:52.841Z,100.00
2023-04-30T22:11:21.272Z,100.00
2023-04-30T22:13:48.316Z,100.00
2023-04-30T22:16:15.316Z,100.00
2023-04-30T22:18:42.187Z,100.00
2023-04-30T22:21:09.186Z,100.00
2023-04-30T22:23:36.982Z,100.00
2023-04-30T22:26:09.818Z,100.00
2023-04-30T22:28:37.867Z,100.00
2023-04-30T22:31:04.884Z,100.00
2023-04-30T22:33:36.213Z,100.00
2023-04-30T22:36:04.600Z,100.00
2023-04-30T22:38:32.066Z,100.00
2023-04-30T22:41:00.317Z,100.00
2023-04-30T22:43:29.322Z,100.00
2023-04-30T22:45:57.860Z,100.00
2023-04-30T22:48:25.077Z,100.00
2023-04-30T22:50:52.818Z,100.00
2023-04-30T22:53:19.644Z,100.00
2023-04-30T22:55:46.564Z,100.00
2023-04-30T22:58:14.073Z,100.00
2023-04-30T23:00:41.291Z,100.00
2023-04-30T23:03:08.638Z,100.00
2023-04-30T23:05:35.937Z,100.00
2023-04-30T23:08:03.268Z,100.00
2023-04-30T23:10:30.763Z,100.00
2023-04-30T23:12:58.910Z,100.00
2023-04-30T23:15:26.348Z,100.00
2023-04-30T23:17:54.670Z,100.00
2023-04-30T23:20:22.786Z,100.00
2023-04-30T23:22:50.274Z,100.00
2023-04-30T23:25:17.199Z,100.00
2023-04-30T23:27:45.333Z,100.00
2023-04-30T23:30:12.372Z,100.00
2023-04-30T23:32:39.376Z,100.00
2023-04-30T23:35:07.831Z,100.00
2023-04-30T23:37:35.449Z,100.00
2023-04-30T23:40:02.429Z,100.00
2023-04-30T23:42:29.510Z,100.00
2023-04-30T23:44:56.344Z,100.00
2023-04-30T23:47:23.337Z,100.00
2023-04-30T23:49:50.109Z,100.00
2023-04-30T23:52:16.968Z,100.00
2023-04-30T23:54:43.846Z,100.00
2023-04-30T23:57:11.426Z,100.00
2023-04-30T23:59:38.312Z,100.00
